KBDH

Details ICAO KBDH
Name WILLMAR MUNI
Region United States
Timezone America/Chicago (UTC-6.0)
Plans Departing 2
Arriving 4
Stats Elevation 1,126 ft / 343 m (AMSL)
Location 45.117722° -95.130417°
Runways 2
Magnetic Variation 1.713° E
Sunrise 2017-12-15 13:53:57 UTC / 2017-12-15 07:53:57 Local
Sunset 2017-12-15 22:40:26 UTC / 2017-12-15 16:40:26 Local
Advertisement - Login to hide

Runways

ID Width Length Bearing (true) Bearing (mag) Surface Threshold Offset Overrun Length
03 300 ft / 91 m 3,003 ft / 915 m 32.78° 31.07° Dirt 0 ft / 0 m 0 ft / 0 m
13 100 ft / 30 m 5,505 ft / 1,678 m 132.78° 131.07° Asphalt 0 ft / 0 m 200 ft / 61 m
21 300 ft / 91 m 3,003 ft / 915 m 212.79° 211.08° Dirt 0 ft / 0 m 0 ft / 0 m
31 100 ft / 30 m 5,505 ft / 1,678 m 312.79° 311.08° Asphalt 0 ft / 0 m 200 ft / 61 m

Map

Weather


0- 5 10 15 20 25 30 35+ Temperature / ° C

Clouds and Precipitation
Forecast for 2017-12-15 12:00 UTC. Updated an hour ago

Ground ~20,000 ft ~40,000 ft Winds

METAR

KBDH 151155Z AUTO 01005KT 10SM BKN007 OVC030 M02/M02 A2989 RMK AO2

TAF

Not found

Frequencies

Unicom 122.80 MHz UNICOM
Warning: Do not use this data for real-world aviation or navigation. No guarantee of current accuracy is given.